sensor_id;sensor_type;location;lat;lon;timestamp;pressure;altitude;pressure_sealevel;temperature;humidity
37170;BME280;23062;13.952;100.608;2023-04-27T00:01:32;1010.27;;;30.90;67.40
37170;BME280;23062;13.952;100.608;2023-04-27T00:05:58;1010.30;;;30.92;66.97
37170;BME280;23062;13.952;100.608;2023-04-27T00:10:24;1010.34;;;30.93;66.82
37170;BME280;23062;13.952;100.608;2023-04-27T00:14:50;1010.39;;;30.97;66.65
37170;BME280;23062;13.952;100.608;2023-04-27T00:19:15;1010.50;;;31.01;66.61
37170;BME280;23062;13.952;100.608;2023-04-27T00:23:42;1010.58;;;31.04;66.58
37170;BME280;23062;13.952;100.608;2023-04-27T00:28:08;1010.73;;;31.07;66.29
37170;BME280;23062;13.952;100.608;2023-04-27T00:32:34;1010.83;;;31.09;66.36
37170;BME280;23062;13.952;100.608;2023-04-27T00:37:03;1010.91;;;31.12;66.01
37170;BME280;23062;13.952;100.608;2023-04-27T00:41:38;1010.97;;;31.15;66.02
37170;BME280;23062;13.952;100.608;2023-04-27T00:46:04;1010.94;;;31.15;65.73
37170;BME280;23062;13.952;100.608;2023-04-27T00:50:30;1010.98;;;31.20;65.26
37170;BME280;23062;13.952;100.608;2023-04-27T00:55:00;1011.05;;;31.22;65.35
37170;BME280;23062;13.952;100.608;2023-04-27T00:59:30;1011.11;;;31.24;65.14
37170;BME280;23062;13.952;100.608;2023-04-27T01:03:56;1011.16;;;31.27;64.84
37170;BME280;23062;13.952;100.608;2023-04-27T01:08:22;1011.25;;;31.28;64.94
37170;BME280;23062;13.952;100.608;2023-04-27T01:12:51;1011.32;;;31.29;64.78
37170;BME280;23062;13.952;100.608;2023-04-27T01:17:21;1011.31;;;31.32;64.64
37170;BME280;23062;13.952;100.608;2023-04-27T01:21:48;1011.39;;;31.34;64.82
37170;BME280;23062;13.952;100.608;2023-04-27T01:26:16;1011.40;;;31.39;64.68
37170;BME280;23062;13.952;100.608;2023-04-27T01:30:41;1011.42;;;31.40;65.06
37170;BME280;23062;13.952;100.608;2023-04-27T01:35:07;1011.50;;;31.42;65.22
37170;BME280;23062;13.952;100.608;2023-04-27T01:39:37;1011.50;;;31.44;64.93
37170;BME280;23062;13.952;100.608;2023-04-27T01:44:02;1011.56;;;31.46;64.66
37170;BME280;23062;13.952;100.608;2023-04-27T01:48:29;1011.65;;;31.48;64.80
37170;BME280;23062;13.952;100.608;2023-04-27T01:52:55;1011.73;;;31.50;64.50
37170;BME280;23062;13.952;100.608;2023-04-27T01:57:21;1011.83;;;31.51;64.47
37170;BME280;23062;13.952;100.608;2023-04-27T02:01:46;1011.83;;;31.54;64.46
37170;BME280;23062;13.952;100.608;2023-04-27T02:06:19;1011.82;;;31.34;66.50
37170;BME280;23062;13.952;100.608;2023-04-27T02:10:52;1011.83;;;31.30;66.61
37170;BME280;23062;13.952;100.608;2023-04-27T02:15:18;1011.84;;;31.34;66.17
37170;BME280;23062;13.952;100.608;2023-04-27T02:19:44;1011.84;;;31.35;66.01
37170;BME280;23062;13.952;100.608;2023-04-27T02:24:11;1011.85;;;31.35;65.21
37170;BME280;23062;13.952;100.608;2023-04-27T02:28:36;1011.85;;;31.39;64.77
37170;BME280;23062;13.952;100.608;2023-04-27T02:33:02;1011.82;;;31.43;64.37
37170;BME280;23062;13.952;100.608;2023-04-27T02:37:27;1011.77;;;31.44;64.68
37170;BME280;23062;13.952;100.608;2023-04-27T02:41:57;1011.66;;;31.49;64.88
37170;BME280;23062;13.952;100.608;2023-04-27T02:46:29;1011.62;;;31.51;65.05
37170;BME280;23062;13.952;100.608;2023-04-27T02:50:55;1011.58;;;31.54;65.00
37170;BME280;23062;13.952;100.608;2023-04-27T02:55:21;1011.59;;;31.57;65.31
37170;BME280;23062;13.952;100.608;2023-04-27T02:59:51;1011.67;;;31.63;65.07
37170;BME280;23062;13.952;100.608;2023-04-27T03:04:16;1011.48;;;31.64;64.44
37170;BME280;23062;13.952;100.608;2023-04-27T03:08:42;1011.42;;;31.67;63.72
37170;BME280;23062;13.952;100.608;2023-04-27T03:13:15;1011.40;;;31.67;63.73
37170;BME280;23062;13.952;100.608;2023-04-27T03:17:43;1011.34;;;31.69;63.64
37170;BME280;23062;13.952;100.608;2023-04-27T03:22:11;1011.36;;;31.71;63.51
37170;BME280;23062;13.952;100.608;2023-04-27T03:26:41;1011.33;;;31.66;63.39
37170;BME280;23062;13.952;100.608;2023-04-27T03:31:11;1011.24;;;31.78;62.91
37170;BME280;23062;13.952;100.608;2023-04-27T03:35:37;1011.20;;;31.83;62.63
37170;BME280;23062;13.952;100.608;2023-04-27T03:40:04;1011.15;;;31.87;62.43
37170;BME280;23062;13.952;100.608;2023-04-27T03:44:35;1011.16;;;31.89;62.44
37170;BME280;23062;13.952;100.608;2023-04-27T03:48:59;1011.10;;;31.89;62.28
37170;BME280;23062;13.952;100.608;2023-04-27T03:53:25;1011.09;;;31.97;62.03
37170;BME280;23062;13.952;100.608;2023-04-27T03:57:53;1011.00;;;31.99;61.72
37170;BME280;23062;13.952;100.608;2023-04-27T04:02:23;1010.99;;;32.01;61.51
37170;BME280;23062;13.952;100.608;2023-04-27T04:06:48;1010.87;;;32.04;61.04
37170;BME280;23062;13.952;100.608;2023-04-27T04:11:14;1010.92;;;32.07;60.75
37170;BME280;23062;13.952;100.608;2023-04-27T04:15:43;1010.74;;;32.07;60.83
37170;BME280;23062;13.952;100.608;2023-04-27T04:20:12;1010.70;;;32.12;60.66
37170;BME280;23062;13.952;100.608;2023-04-27T04:24:43;1010.70;;;32.10;60.99
37170;BME280;23062;13.952;100.608;2023-04-27T04:29:09;1010.65;;;32.14;60.79
37170;BME280;23062;13.952;100.608;2023-04-27T04:33:38;1010.61;;;32.17;59.99
37170;BME280;23062;13.952;100.608;2023-04-27T04:38:03;1010.53;;;32.17;59.91
37170;BME280;23062;13.952;100.608;2023-04-27T04:42:29;1010.49;;;32.17;59.91
37170;BME280;23062;13.952;100.608;2023-04-27T04:46:56;1010.49;;;32.22;59.90
37170;BME280;23062;13.952;100.608;2023-04-27T04:51:22;1010.42;;;32.23;59.35
37170;BME280;23062;13.952;100.608;2023-04-27T04:55:47;1010.29;;;32.24;58.55
37170;BME280;23062;13.952;100.608;2023-04-27T05:00:13;1010.21;;;32.29;57.88
37170;BME280;23062;13.952;100.608;2023-04-27T05:04:43;1010.15;;;32.25;58.09
37170;BME280;23062;13.952;100.608;2023-04-27T05:09:09;1010.06;;;32.27;58.51
37170;BME280;23062;13.952;100.608;2023-04-27T05:13:37;1010.04;;;32.29;58.91
37170;BME280;23062;13.952;100.608;2023-04-27T05:18:03;1010.02;;;32.35;58.71
37170;BME280;23062;13.952;100.608;2023-04-27T05:22:29;1009.90;;;32.39;58.53
37170;BME280;23062;13.952;100.608;2023-04-27T05:26:58;1009.87;;;32.42;58.55
37170;BME280;23062;13.952;100.608;2023-04-27T05:31:25;1009.80;;;32.41;58.76
37170;BME280;23062;13.952;100.608;2023-04-27T05:36:01;1009.73;;;32.44;58.73
37170;BME280;23062;13.952;100.608;2023-04-27T05:40:24;1009.63;;;32.48;58.14
37170;BME280;23062;13.952;100.608;2023-04-27T05:44:50;1009.48;;;32.48;57.88
37170;BME280;23062;13.952;100.608;2023-04-27T05:49:16;1009.35;;;32.52;56.71
37170;BME280;23062;13.952;100.608;2023-04-27T05:53:46;1009.26;;;32.51;56.83
37170;BME280;23062;13.952;100.608;2023-04-27T05:58:13;1009.21;;;32.59;56.59
37170;BME280;23062;13.952;100.608;2023-04-27T06:02:41;1009.13;;;32.64;56.09
37170;BME280;23062;13.952;100.608;2023-04-27T06:07:10;1009.04;;;32.74;55.45
37170;BME280;23062;13.952;100.608;2023-04-27T06:11:36;1008.92;;;32.88;55.68
37170;BME280;23062;13.952;100.608;2023-04-27T06:16:03;1008.81;;;32.84;55.91
37170;BME280;23062;13.952;100.608;2023-04-27T06:20:30;1008.65;;;32.78;56.50
37170;BME280;23062;13.952;100.608;2023-04-27T06:24:56;1008.59;;;32.75;56.58
37170;BME280;23062;13.952;100.608;2023-04-27T06:29:22;1008.48;;;32.74;56.40
37170;BME280;23062;13.952;100.608;2023-04-27T06:33:51;1008.34;;;32.71;56.23
37170;BME280;23062;13.952;100.608;2023-04-27T06:38:19;1008.09;;;32.64;56.13
37170;BME280;23062;13.952;100.608;2023-04-27T06:42:50;1008.02;;;32.64;56.43
37170;BME280;23062;13.952;100.608;2023-04-27T06:47:16;1007.90;;;32.63;56.07
37170;BME280;23062;13.952;100.608;2023-04-27T06:51:42;1007.89;;;32.64;55.94
37170;BME280;23062;13.952;100.608;2023-04-27T06:56:11;1007.71;;;32.63;56.01
37170;BME280;23062;13.952;100.608;2023-04-27T07:00:36;1007.60;;;32.66;55.85
37170;BME280;23062;13.952;100.608;2023-04-27T07:05:02;1007.48;;;32.71;54.61
37170;BME280;23062;13.952;100.608;2023-04-27T07:09:28;1007.38;;;32.71;54.06
37170;BME280;23062;13.952;100.608;2023-04-27T07:13:54;1007.33;;;32.74;54.01
37170;BME280;23062;13.952;100.608;2023-04-27T07:18:23;1007.21;;;32.72;54.08
37170;BME280;23062;13.952;100.608;2023-04-27T07:22:50;1007.22;;;32.81;53.04
37170;BME280;23062;13.952;100.608;2023-04-27T07:27:17;1007.06;;;32.83;52.74
37170;BME280;23062;13.952;100.608;2023-04-27T07:31:45;1006.97;;;32.87;52.92
37170;BME280;23062;13.952;100.608;2023-04-27T07:36:13;1006.87;;;32.84;53.14
37170;BME280;23062;13.952;100.608;2023-04-27T07:40:41;1006.82;;;32.85;53.31
37170;BME280;23062;13.952;100.608;2023-04-27T07:45:09;1006.76;;;32.86;53.11
37170;BME280;23062;13.952;100.608;2023-04-27T07:49:35;1006.70;;;32.90;52.94
37170;BME280;23062;13.952;100.608;2023-04-27T07:54:04;1006.65;;;32.94;52.14
37170;BME280;23062;13.952;100.608;2023-04-27T07:58:30;1006.66;;;32.91;51.97
37170;BME280;23062;13.952;100.608;2023-04-27T08:02:59;1006.68;;;32.98;51.17
37170;BME280;23062;13.952;100.608;2023-04-27T08:07:25;1006.63;;;32.95;51.17
37170;BME280;23062;13.952;100.608;2023-04-27T08:11:53;1006.73;;;33.01;50.63
37170;BME280;23062;13.952;100.608;2023-04-27T08:16:21;1006.72;;;33.04;50.93
37170;BME280;23062;13.952;100.608;2023-04-27T08:20:47;1006.68;;;33.11;50.28
37170;BME280;23062;13.952;100.608;2023-04-27T08:25:14;1006.55;;;33.11;50.07
37170;BME280;23062;13.952;100.608;2023-04-27T08:29:47;1006.49;;;33.19;49.51
37170;BME280;23062;13.952;100.608;2023-04-27T08:34:14;1006.55;;;33.17;50.10
37170;BME280;23062;13.952;100.608;2023-04-27T08:38:41;1006.55;;;33.15;50.16
37170;BME280;23062;13.952;100.608;2023-04-27T08:43:14;1006.58;;;33.13;50.25
37170;BME280;23062;13.952;100.608;2023-04-27T08:47:41;1006.55;;;33.14;51.01
37170;BME280;23062;13.952;100.608;2023-04-27T08:52:15;1006.56;;;33.19;52.29
37170;BME280;23062;13.952;100.608;2023-04-27T08:56:51;1006.82;;;33.16;52.35
37170;BME280;23062;13.952;100.608;2023-04-27T09:01:17;1006.85;;;33.10;52.05
37170;BME280;23062;13.952;100.608;2023-04-27T09:10:14;1006.77;;;33.00;50.51
37170;BME280;23062;13.952;100.608;2023-04-27T09:14:54;1006.56;;;32.95;50.41
37170;BME280;23062;13.952;100.608;2023-04-27T09:19:11;1006.52;;;32.88;50.29
37170;BME280;23062;13.952;100.608;2023-04-27T09:23:45;1006.44;;;32.86;50.92
37170;BME280;23062;13.952;100.608;2023-04-27T09:28:13;1006.44;;;32.81;51.74
37170;BME280;23062;13.952;100.608;2023-04-27T09:32:39;1006.39;;;32.81;52.01
37170;BME280;23062;13.952;100.608;2023-04-27T09:37:05;1006.38;;;32.82;52.05
37170;BME280;23062;13.952;100.608;2023-04-27T09:41:32;1006.31;;;32.82;51.96
37170;BME280;23062;13.952;100.608;2023-04-27T09:46:02;1006.37;;;32.79;51.76
37170;BME280;23062;13.952;100.608;2023-04-27T09:50:29;1006.50;;;32.80;51.86
37170;BME280;23062;13.952;100.608;2023-04-27T09:54:58;1006.46;;;32.78;52.17
37170;BME280;23062;13.952;100.608;2023-04-27T09:59:31;1006.30;;;32.78;52.38
37170;BME280;23062;13.952;100.608;2023-04-27T10:08:25;1006.38;;;32.76;52.77
37170;BME280;23062;13.952;100.608;2023-04-27T10:13:03;1006.17;;;32.76;52.81
37170;BME280;23062;13.952;100.608;2023-04-27T10:17:32;1006.03;;;32.76;52.70
37170;BME280;23062;13.952;100.608;2023-04-27T10:22:02;1005.98;;;32.75;52.43
37170;BME280;23062;13.952;100.608;2023-04-27T10:26:58;1005.83;;;32.73;52.59
37170;BME280;23062;13.952;100.608;2023-04-27T10:31:41;1005.83;;;32.75;52.65
37170;BME280;23062;13.952;100.608;2023-04-27T10:36:00;1005.86;;;32.75;52.65
37170;BME280;23062;13.952;100.608;2023-04-27T10:40:31;1005.97;;;32.75;52.67
37170;BME280;23062;13.952;100.608;2023-04-27T10:45:01;1006.07;;;32.75;52.82
37170;BME280;23062;13.952;100.608;2023-04-27T10:49:30;1006.06;;;32.75;52.94
37170;BME280;23062;13.952;100.608;2023-04-27T10:53:57;1006.16;;;32.75;53.05
37170;BME280;23062;13.952;100.608;2023-04-27T10:58:24;1006.37;;;32.76;53.25
37170;BME280;23062;13.952;100.608;2023-04-27T11:02:50;1006.70;;;32.76;53.38
37170;BME280;23062;13.952;100.608;2023-04-27T11:07:24;1006.84;;;32.78;53.38
37170;BME280;23062;13.952;100.608;2023-04-27T11:11:51;1007.07;;;32.79;53.73
37170;BME280;23062;13.952;100.608;2023-04-27T11:16:17;1007.34;;;32.78;54.09
37170;BME280;23062;13.952;100.608;2023-04-27T11:20:51;1007.67;;;32.82;54.36
37170;BME280;23062;13.952;100.608;2023-04-27T11:25:15;1007.89;;;32.81;54.38
37170;BME280;23062;13.952;100.608;2023-04-27T11:29:42;1008.07;;;32.80;54.22
37170;BME280;23062;13.952;100.608;2023-04-27T11:34:08;1008.21;;;32.79;54.18
37170;BME280;23062;13.952;100.608;2023-04-27T11:38:34;1008.39;;;32.78;54.34
37170;BME280;23062;13.952;100.608;2023-04-27T11:43:01;1008.43;;;32.77;54.41
37170;BME280;23062;13.952;100.608;2023-04-27T11:47:29;1008.41;;;32.76;54.49
37170;BME280;23062;13.952;100.608;2023-04-27T11:51:59;1008.52;;;32.75;54.68
37170;BME280;23062;13.952;100.608;2023-04-27T12:00:56;1008.67;;;32.77;54.66
37170;BME280;23062;13.952;100.608;2023-04-27T12:05:23;1008.78;;;32.76;54.90
37170;BME280;23062;13.952;100.608;2023-04-27T12:09:49;1008.82;;;32.72;55.09
37170;BME280;23062;13.952;100.608;2023-04-27T12:14:15;1008.94;;;32.70;55.13
37170;BME280;23062;13.952;100.608;2023-04-27T12:18:42;1009.03;;;32.69;54.34
37170;BME280;23062;13.952;100.608;2023-04-27T12:23:15;1009.00;;;32.63;54.13
37170;BME280;23062;13.952;100.608;2023-04-27T12:27:41;1008.94;;;32.64;54.16
37170;BME280;23062;13.952;100.608;2023-04-27T12:32:11;1008.99;;;32.64;54.32
37170;BME280;23062;13.952;100.608;2023-04-27T12:36:35;1008.96;;;32.62;54.37
37170;BME280;23062;13.952;100.608;2023-04-27T12:41:05;1009.15;;;32.61;54.17
37170;BME280;23062;13.952;100.608;2023-04-27T12:45:35;1009.14;;;32.65;54.42
37170;BME280;23062;13.952;100.608;2023-04-27T12:50:07;1009.23;;;32.63;54.82
37170;BME280;23062;13.952;100.608;2023-04-27T12:54:30;1009.35;;;32.63;54.97
37170;BME280;23062;13.952;100.608;2023-04-27T12:58:57;1009.51;;;32.62;55.22
37170;BME280;23062;13.952;100.608;2023-04-27T13:03:23;1009.59;;;32.62;55.51
37170;BME280;23062;13.952;100.608;2023-04-27T13:07:54;1009.63;;;32.64;55.44
37170;BME280;23062;13.952;100.608;2023-04-27T13:12:19;1009.78;;;32.65;55.29
37170;BME280;23062;13.952;100.608;2023-04-27T13:16:45;1009.91;;;32.64;55.31
37170;BME280;23062;13.952;100.608;2023-04-27T13:21:11;1009.81;;;32.63;55.46
37170;BME280;23062;13.952;100.608;2023-04-27T13:25:38;1009.66;;;32.63;55.63
37170;BME280;23062;13.952;100.608;2023-04-27T13:30:07;1009.63;;;32.64;55.86
37170;BME280;23062;13.952;100.608;2023-04-27T13:34:34;1009.66;;;32.62;56.21
37170;BME280;23062;13.952;100.608;2023-04-27T13:39:01;1009.72;;;32.60;56.49
37170;BME280;23062;13.952;100.608;2023-04-27T13:43:31;1009.86;;;32.60;56.71
37170;BME280;23062;13.952;100.608;2023-04-27T13:48:02;1009.97;;;32.60;56.85
37170;BME280;23062;13.952;100.608;2023-04-27T13:52:25;1010.05;;;32.56;57.09
37170;BME280;23062;13.952;100.608;2023-04-27T13:56:52;1010.16;;;32.51;56.95
37170;BME280;23062;13.952;100.608;2023-04-27T14:01:19;1010.26;;;32.49;56.37
37170;BME280;23062;13.952;100.608;2023-04-27T14:05:52;1010.30;;;32.44;55.58
37170;BME280;23062;13.952;100.608;2023-04-27T14:10:20;1010.34;;;32.38;55.47
37170;BME280;23062;13.952;100.608;2023-04-27T14:14:50;1010.36;;;32.32;55.62
37170;BME280;23062;13.952;100.608;2023-04-27T14:19:19;1010.42;;;32.39;55.75
37170;BME280;23062;13.952;100.608;2023-04-27T14:23:46;1010.44;;;32.58;55.30
37170;BME280;23062;13.952;100.608;2023-04-27T14:28:19;1010.34;;;32.67;55.17
37170;BME280;23062;13.952;100.608;2023-04-27T14:32:45;1010.36;;;32.72;55.17
37170;BME280;23062;13.952;100.608;2023-04-27T14:37:10;1010.28;;;32.76;55.24
37170;BME280;23062;13.952;100.608;2023-04-27T14:41:36;1010.20;;;32.77;55.27
37170;BME280;23062;13.952;100.608;2023-04-27T14:46:02;1010.20;;;32.79;55.30
37170;BME280;23062;13.952;100.608;2023-04-27T14:50:28;1010.30;;;32.81;55.39
37170;BME280;23062;13.952;100.608;2023-04-27T14:55:00;1010.21;;;32.78;55.42
37170;BME280;23062;13.952;100.608;2023-04-27T14:59:27;1010.35;;;32.80;55.46
37170;BME280;23062;13.952;100.608;2023-04-27T15:03:54;1010.50;;;32.80;55.54
37170;BME280;23062;13.952;100.608;2023-04-27T15:08:21;1010.68;;;32.82;55.70
37170;BME280;23062;13.952;100.608;2023-04-27T15:12:47;1010.64;;;32.81;55.72
37170;BME280;23062;13.952;100.608;2023-04-27T15:17:20;1010.71;;;32.79;55.88
37170;BME280;23062;13.952;100.608;2023-04-27T15:21:47;1010.79;;;32.82;55.87
37170;BME280;23062;13.952;100.608;2023-04-27T15:26:13;1010.59;;;32.82;55.87
37170;BME280;23062;13.952;100.608;2023-04-27T15:30:39;1010.49;;;32.82;55.90
37170;BME280;23062;13.952;100.608;2023-04-27T15:35:05;1010.47;;;32.80;55.99
37170;BME280;23062;13.952;100.608;2023-04-27T15:39:31;1010.43;;;32.82;55.89
37170;BME280;23062;13.952;100.608;2023-04-27T15:43:57;1010.37;;;32.82;55.97
37170;BME280;23062;13.952;100.608;2023-04-27T15:48:23;1010.35;;;32.82;55.87
37170;BME280;23062;13.952;100.608;2023-04-27T15:52:49;1010.29;;;32.80;55.88
37170;BME280;23062;13.952;100.608;2023-04-27T15:57:16;1010.14;;;32.80;55.94
37170;BME280;23062;13.952;100.608;2023-04-27T16:01:42;1010.09;;;32.80;55.94
37170;BME280;23062;13.952;100.608;2023-04-27T16:06:08;1010.04;;;32.80;55.90
37170;BME280;23062;13.952;100.608;2023-04-27T16:10:34;1009.93;;;32.78;55.98
37170;BME280;23062;13.952;100.608;2023-04-27T16:15:02;1009.88;;;32.79;56.03
37170;BME280;23062;13.952;100.608;2023-04-27T16:19:28;1009.74;;;32.80;56.02
37170;BME280;23062;13.952;100.608;2023-04-27T16:24:01;1009.72;;;32.77;56.15
37170;BME280;23062;13.952;100.608;2023-04-27T16:28:27;1009.71;;;32.80;56.05
37170;BME280;23062;13.952;100.608;2023-04-27T16:33:00;1009.67;;;32.78;56.11
37170;BME280;23062;13.952;100.608;2023-04-27T16:37:26;1009.55;;;32.78;56.04
37170;BME280;23062;13.952;100.608;2023-04-27T16:41:55;1009.44;;;32.79;56.08
37170;BME280;23062;13.952;100.608;2023-04-27T16:46:21;1009.32;;;32.77;56.19
37170;BME280;23062;13.952;100.608;2023-04-27T16:50:47;1009.38;;;32.76;56.17
37170;BME280;23062;13.952;100.608;2023-04-27T16:55:13;1009.40;;;32.77;56.25
37170;BME280;23062;13.952;100.608;2023-04-27T16:59:39;1009.28;;;32.78;56.32
37170;BME280;23062;13.952;100.608;2023-04-27T17:04:05;1009.25;;;32.78;56.49
37170;BME280;23062;13.952;100.608;2023-04-27T17:08:31;1009.15;;;32.79;56.53
37170;BME280;23062;13.952;100.608;2023-04-27T17:13:00;1009.16;;;32.75;56.70
37170;BME280;23062;13.952;100.608;2023-04-27T17:17:26;1009.18;;;32.77;56.82
37170;BME280;23062;13.952;100.608;2023-04-27T17:21:53;1009.08;;;32.77;56.77
37170;BME280;23062;13.952;100.608;2023-04-27T17:26:19;1008.92;;;32.76;56.83
37170;BME280;23062;13.952;100.608;2023-04-27T17:30:46;1008.84;;;32.77;56.93
37170;BME280;23062;13.952;100.608;2023-04-27T17:35:11;1008.82;;;32.77;56.84
37170;BME280;23062;13.952;100.608;2023-04-27T17:39:40;1008.77;;;32.77;57.03
37170;BME280;23062;13.952;100.608;2023-04-27T17:44:06;1008.83;;;32.78;57.20
37170;BME280;23062;13.952;100.608;2023-04-27T17:48:32;1008.80;;;32.78;57.13
37170;BME280;23062;13.952;100.608;2023-04-27T17:52:58;1008.76;;;32.78;57.31
37170;BME280;23062;13.952;100.608;2023-04-27T17:57:24;1008.77;;;32.76;57.25
37170;BME280;23062;13.952;100.608;2023-04-27T18:01:54;1008.82;;;32.74;56.98
37170;BME280;23062;13.952;100.608;2023-04-27T18:06:26;1008.86;;;32.71;57.12
37170;BME280;23062;13.952;100.608;2023-04-27T18:10:52;1008.85;;;32.72;57.15
37170;BME280;23062;13.952;100.608;2023-04-27T18:15:18;1008.89;;;32.73;57.13
37170;BME280;23062;13.952;100.608;2023-04-27T18:19:46;1008.99;;;32.73;57.22
37170;BME280;23062;13.952;100.608;2023-04-27T18:24:12;1008.96;;;32.72;57.25
37170;BME280;23062;13.952;100.608;2023-04-27T18:28:40;1008.88;;;32.73;57.29
37170;BME280;23062;13.952;100.608;2023-04-27T18:33:06;1008.86;;;32.72;57.41
37170;BME280;23062;13.952;100.608;2023-04-27T18:37:40;1008.88;;;32.69;57.58
37170;BME280;23062;13.952;100.608;2023-04-27T18:42:07;1008.93;;;32.70;57.60
37170;BME280;23062;13.952;100.608;2023-04-27T18:46:34;1008.93;;;32.72;57.60
37170;BME280;23062;13.952;100.608;2023-04-27T18:51:07;1008.99;;;32.70;57.71
37170;BME280;23062;13.952;100.608;2023-04-27T18:55:37;1008.94;;;32.72;57.72
37170;BME280;23062;13.952;100.608;2023-04-27T19:00:06;1008.83;;;32.69;57.70
37170;BME280;23062;13.952;100.608;2023-04-27T19:04:41;1008.85;;;32.72;57.75
37170;BME280;23062;13.952;100.608;2023-04-27T19:09:07;1008.85;;;32.70;57.90
37170;BME280;23062;13.952;100.608;2023-04-27T19:13:34;1008.82;;;32.71;57.88
37170;BME280;23062;13.952;100.608;2023-04-27T19:18:02;1008.83;;;32.70;57.97
37170;BME280;23062;13.952;100.608;2023-04-27T19:22:28;1008.77;;;32.70;57.99
37170;BME280;23062;13.952;100.608;2023-04-27T19:27:06;1008.71;;;32.69;58.06
37170;BME280;23062;13.952;100.608;2023-04-27T19:31:35;1008.70;;;32.69;58.06
37170;BME280;23062;13.952;100.608;2023-04-27T19:36:01;1008.73;;;32.73;58.00
37170;BME280;23062;13.952;100.608;2023-04-27T19:40:28;1008.78;;;32.73;58.03
37170;BME280;23062;13.952;100.608;2023-04-27T19:44:54;1008.82;;;32.75;58.03
37170;BME280;23062;13.952;100.608;2023-04-27T19:49:22;1008.79;;;32.76;58.16
37170;BME280;23062;13.952;100.608;2023-04-27T19:53:51;1008.80;;;32.75;58.19
37170;BME280;23062;13.952;100.608;2023-04-27T19:58:17;1008.79;;;32.76;58.19
37170;BME280;23062;13.952;100.608;2023-04-27T20:02:44;1008.77;;;32.76;58.25
37170;BME280;23062;13.952;100.608;2023-04-27T20:07:10;1008.79;;;32.75;58.40
37170;BME280;23062;13.952;100.608;2023-04-27T20:11:39;1008.83;;;32.75;58.19
37170;BME280;23062;13.952;100.608;2023-04-27T20:16:05;1008.76;;;32.75;58.36
37170;BME280;23062;13.952;100.608;2023-04-27T20:20:40;1008.70;;;32.73;58.44
37170;BME280;23062;13.952;100.608;2023-04-27T20:25:05;1008.71;;;32.73;58.45
37170;BME280;23062;13.952;100.608;2023-04-27T20:29:40;1008.70;;;32.74;58.54
37170;BME280;23062;13.952;100.608;2023-04-27T20:34:02;1008.76;;;32.73;58.61
37170;BME280;23062;13.952;100.608;2023-04-27T20:38:29;1008.73;;;32.71;58.81
37170;BME280;23062;13.952;100.608;2023-04-27T20:42:58;1008.77;;;32.31;60.23
37170;BME280;23062;13.952;100.608;2023-04-27T20:47:26;1008.78;;;32.13;60.74
37170;BME280;23062;13.952;100.608;2023-04-27T20:52:03;1008.87;;;32.05;60.54
37170;BME280;23062;13.952;100.608;2023-04-27T20:56:32;1008.84;;;32.00;60.23
37170;BME280;23062;13.952;100.608;2023-04-27T21:00:59;1008.90;;;31.84;60.14
37170;BME280;23062;13.952;100.608;2023-04-27T21:05:26;1008.86;;;31.72;60.30
37170;BME280;23062;13.952;100.608;2023-04-27T21:14:26;1008.83;;;31.54;60.69
37170;BME280;23062;13.952;100.608;2023-04-27T21:18:52;1008.79;;;31.57;60.94
37170;BME280;23062;13.952;100.608;2023-04-27T21:23:22;1008.74;;;31.59;61.21
37170;BME280;23062;13.952;100.608;2023-04-27T21:27:48;1008.68;;;31.49;61.53
37170;BME280;23062;13.952;100.608;2023-04-27T21:32:16;1008.68;;;31.44;61.78
37170;BME280;23062;13.952;100.608;2023-04-27T21:41:11;1008.82;;;31.43;61.98
37170;BME280;23062;13.952;100.608;2023-04-27T21:45:37;1008.84;;;31.45;61.99
37170;BME280;23062;13.952;100.608;2023-04-27T21:50:09;1008.91;;;31.45;62.19
37170;BME280;23062;13.952;100.608;2023-04-27T21:54:39;1009.00;;;31.44;62.33
37170;BME280;23062;13.952;100.608;2023-04-27T21:59:11;1009.07;;;31.40;62.48
37170;BME280;23062;13.952;100.608;2023-04-27T22:03:41;1009.14;;;31.40;62.65
37170;BME280;23062;13.952;100.608;2023-04-27T22:08:08;1009.17;;;31.44;62.65
37170;BME280;23062;13.952;100.608;2023-04-27T22:12:35;1009.28;;;31.36;62.98
37170;BME280;23062;13.952;100.608;2023-04-27T22:17:08;1009.28;;;31.34;62.93
37170;BME280;23062;13.952;100.608;2023-04-27T22:21:41;1009.37;;;31.33;63.09
37170;BME280;23062;13.952;100.608;2023-04-27T22:26:08;1009.40;;;31.34;63.00
37170;BME280;23062;13.952;100.608;2023-04-27T22:30:36;1009.45;;;31.35;63.09
37170;BME280;23062;13.952;100.608;2023-04-27T22:35:08;1009.47;;;31.31;63.17
37170;BME280;23062;13.952;100.608;2023-04-27T22:39:37;1009.55;;;31.34;63.16
37170;BME280;23062;13.952;100.608;2023-04-27T22:44:04;1009.63;;;31.42;62.50
37170;BME280;23062;13.952;100.608;2023-04-27T22:48:31;1009.64;;;31.43;63.73
37170;BME280;23062;13.952;100.608;2023-04-27T22:53:05;1009.67;;;31.35;63.73
37170;BME280;23062;13.952;100.608;2023-04-27T22:57:32;1009.69;;;31.28;63.98
37170;BME280;23062;13.952;100.608;2023-04-27T23:02:08;1009.70;;;31.34;63.93
37170;BME280;23062;13.952;100.608;2023-04-27T23:06:31;1009.72;;;31.27;63.55
37170;BME280;23062;13.952;100.608;2023-04-27T23:10:57;1009.71;;;31.25;63.65
37170;BME280;23062;13.952;100.608;2023-04-27T23:15:23;1009.74;;;31.28;63.30
37170;BME280;23062;13.952;100.608;2023-04-27T23:19:49;1009.77;;;31.29;62.68
37170;BME280;23062;13.952;100.608;2023-04-27T23:24:14;1009.75;;;31.25;63.04
37170;BME280;23062;13.952;100.608;2023-04-27T23:28:40;1009.74;;;31.20;62.79
37170;BME280;23062;13.952;100.608;2023-04-27T23:33:07;1009.82;;;31.20;63.02
37170;BME280;23062;13.952;100.608;2023-04-27T23:37:33;1009.98;;;31.22;62.99
37170;BME280;23062;13.952;100.608;2023-04-27T23:42:01;1010.05;;;31.27;62.50